Time;durP1;ratioP1;P1;durP2;ratioP2;P2;SDS_P1;SDS_P2;PMS_P1;PMS_P2;Temp;Humidity;BMP_temperature;BMP_pressure;BME280_temperature;BME280_humidity;BME280_pressure;Samples;Min_cycle;Max_cycle;Signal;HPM_P1;HPM_P2
2021/04/23 00:00:42;;;;;;;8.20;7.17;;;;;;;;;;5130633;23;20496;-96
2021/04/23 00:03:14;;;;;;;9.80;7.57;;;;;;;;;;5069611;28;20450;-96
2021/04/23 00:05:40;;;;;;;10.70;7.60;;;;;;;;;;5073409;28;20481;-95
2021/04/23 00:08:06;;;;;;;9.13;7.60;;;;;;;;;;5071495;28;20464;-96
2021/04/23 00:10:32;;;;;;;8.43;6.90;;;;;;;;;;5062662;28;20467;-95
2021/04/23 00:12:58;;;;;;;8.70;7.83;;;;;;;;;;5045522;28;20452;-96
2021/04/23 00:15:25;;;;;;;9.20;7.67;;;;;;;;;;5063501;28;20474;-96
2021/04/23 00:17:52;;;;;;;10.10;7.77;;;;;;;;;;5068350;28;20516;-96
2021/04/23 00:20:19;;;;;;;11.10;8.53;;;;;;;;;;5067222;28;20457;-96
2021/04/23 00:22:45;;;;;;;10.70;8.37;;;;;;;;;;5064839;28;20978;-96
2021/04/23 00:25:13;;;;;;;8.37;7.57;;;;;;;;;;5068096;28;20491;-96
2021/04/23 00:27:41;;;;;;;11.33;8.60;;;;;;;;;;5068020;28;20454;-96
2021/04/23 00:30:11;;;;;;;8.97;8.17;;;;;;;;;;5070418;28;20454;-96
2021/04/23 00:32:55;;;;;;;12.47;8.60;;;;;;;;;;5062312;28;20459;-96
2021/04/23 00:35:23;;;;;;;10.30;8.23;;;;;;;;;;5069688;28;20445;-96
2021/04/23 00:37:52;;;;;;;10.60;8.70;;;;;;;;;;5063988;28;20450;-96
2021/04/23 01:02:45;;;;;;;13.20;11.80;;;;;;;;;;5331316;22;20446;-96
2021/04/23 01:05:17;;;;;;;15.37;13.30;;;;;;;;;;5040898;28;20491;-97
2021/04/23 01:13:32;;;;;;;13.67;11.90;;;;;;;;;;5052092;23;20509;-96
2021/04/23 01:16:02;;;;;;;13.53;12.13;;;;;;;;;;5025063;28;20450;-96
2021/04/23 01:18:29;;;;;;;13.50;12.20;;;;;;;;;;5051689;28;20446;-96
2021/04/23 01:21:02;;;;;;;13.57;12.00;;;;;;;;;;5047200;28;20473;-96
2021/04/23 01:23:28;;;;;;;13.43;9.43;;;;;;;;;;5045671;28;20450;-96
2021/04/23 01:25:54;;;;;;;11.77;10.67;;;;;;;;;;5045292;28;20494;-96
2021/04/23 01:28:20;;;;;;;10.60;9.50;;;;;;;;;;5044749;28;20457;-96
2021/04/23 01:30:46;;;;;;;10.13;9.10;;;;;;;;;;5045563;28;20455;-96
2021/04/23 01:35:38;;;;;;;12.68;11.38;;;;;;;;;;5201768;22;20487;-96
2021/04/23 01:38:05;;;;;;;14.00;12.60;;;;;;;;;;5002569;28;20201;-96
2021/04/23 01:40:31;;;;;;;15.33;13.47;;;;;;;;;;5016545;28;20467;-96
2021/04/23 01:42:57;;;;;;;14.23;12.80;;;;;;;;;;5007133;28;20463;-96
2021/04/23 01:45:23;;;;;;;16.30;14.20;;;;;;;;;;5011574;28;20496;-96
2021/04/23 01:47:49;;;;;;;20.27;18.27;;;;;;;;;;5020242;28;20516;-96
2021/04/23 01:50:17;;;;;;;24.40;21.90;;;;;;;;;;5017991;28;20493;-96
2021/04/23 01:52:43;;;;;;;26.80;24.00;;;;;;;;;;5023603;28;20467;-96
2021/04/23 01:55:13;;;;;;;29.40;26.00;;;;;;;;;;5003262;28;20440;-96
2021/04/23 01:57:39;;;;;;;27.60;24.57;;;;;;;;;;5017678;28;20461;-96
2021/04/23 02:00:09;;;;;;;19.27;17.17;;;;;;;;;;5022686;28;20456;-96
2021/04/23 02:02:36;;;;;;;18.83;16.67;;;;;;;;;;5016760;28;20455;-96
2021/04/23 02:05:03;;;;;;;19.97;17.97;;;;;;;;;;5026302;28;20559;-96
2021/04/23 02:07:30;;;;;;;22.50;20.27;;;;;;;;;;5006188;28;20452;-96
2021/04/23 02:09:57;;;;;;;22.13;19.73;;;;;;;;;;5008459;28;20487;-96
2021/04/23 02:12:24;;;;;;;25.70;21.77;;;;;;;;;;5024259;28;20953;-96
2021/04/23 02:14:56;;;;;;;25.30;20.90;;;;;;;;;;5012189;28;20452;-96
2021/04/23 02:17:23;;;;;;;25.50;21.90;;;;;;;;;;5030609;28;20473;-96
2021/04/23 02:19:49;;;;;;;21.27;18.30;;;;;;;;;;5017316;28;20459;-96
2021/04/23 02:22:20;;;;;;;19.13;16.10;;;;;;;;;;5020246;28;20448;-96
2021/04/23 02:24:46;;;;;;;16.17;13.60;;;;;;;;;;5006404;28;20467;-96
2021/04/23 02:27:29;;;;;;;14.30;12.90;;;;;;;;;;5019992;28;20463;-96
2021/04/23 02:29:56;;;;;;;14.77;12.57;;;;;;;;;;5082111;22;20500;-96
2021/04/23 02:32:23;;;;;;;15.47;13.87;;;;;;;;;;5032199;28;20507;-96
2021/04/23 02:34:49;;;;;;;15.43;13.70;;;;;;;;;;5054030;28;20464;-96
2021/04/23 02:37:16;;;;;;;14.33;12.90;;;;;;;;;;5026045;28;20446;-96
2021/04/23 02:39:42;;;;;;;15.13;13.53;;;;;;;;;;5049740;28;20458;-96
2021/04/23 02:42:08;;;;;;;13.30;11.90;;;;;;;;;;5042728;28;20451;-96
2021/04/23 02:44:35;;;;;;;13.67;12.10;;;;;;;;;;5041687;28;20484;-96
2021/04/23 02:47:02;;;;;;;11.70;10.50;;;;;;;;;;5043125;28;20461;-96
2021/04/23 02:49:28;;;;;;;11.23;10.10;;;;;;;;;;5043881;28;20451;-96
2021/04/23 02:51:54;;;;;;;11.40;10.30;;;;;;;;;;5046445;28;20458;-96
2021/04/23 02:54:21;;;;;;;12.03;10.70;;;;;;;;;;5044542;28;20447;-94
2021/04/23 02:56:47;;;;;;;10.77;9.67;;;;;;;;;;5041209;28;20483;-94
2021/04/23 02:59:13;;;;;;;10.00;8.93;;;;;;;;;;5043870;28;20458;-96
2021/04/23 03:01:41;;;;;;;9.03;8.13;;;;;;;;;;5052854;28;20471;-96
2021/04/23 03:04:08;;;;;;;10.70;8.90;;;;;;;;;;5044531;28;20453;-96
2021/04/23 03:06:34;;;;;;;11.67;8.07;;;;;;;;;;5036992;28;20489;-96
2021/04/23 03:09:00;;;;;;;9.00;8.10;;;;;;;;;;5040601;28;20615;-95
2021/04/23 03:11:27;;;;;;;10.00;8.87;;;;;;;;;;5041541;28;20455;-95
2021/04/23 03:13:54;;;;;;;10.17;9.20;;;;;;;;;;5042996;28;20487;-95
2021/04/23 03:16:20;;;;;;;11.73;9.50;;;;;;;;;;5043558;28;20484;-95
2021/04/23 03:18:46;;;;;;;10.27;9.20;;;;;;;;;;5042754;28;20451;-95
2021/04/23 03:21:14;;;;;;;11.20;10.00;;;;;;;;;;5043479;28;20454;-96
2021/04/23 03:23:41;;;;;;;12.20;10.47;;;;;;;;;;5042856;28;20458;-95
2021/04/23 03:26:08;;;;;;;12.60;11.00;;;;;;;;;;5043161;28;20484;-96
2021/04/23 03:28:34;;;;;;;13.70;11.00;;;;;;;;;;5040357;28;20512;-95
2021/04/23 03:31:01;;;;;;;12.53;10.50;;;;;;;;;;5042143;28;21022;-96
2021/04/23 03:33:28;;;;;;;13.07;10.60;;;;;;;;;;5042458;28;20454;-96
2021/04/23 03:35:55;;;;;;;13.70;10.97;;;;;;;;;;5051880;28;20485;-96
2021/04/23 03:38:23;;;;;;;12.80;10.83;;;;;;;;;;5051276;28;20468;-96
2021/04/23 03:40:49;;;;;;;12.50;11.20;;;;;;;;;;5043596;28;20453;-95
2021/04/23 03:43:16;;;;;;;9.97;8.93;;;;;;;;;;5041402;28;20453;-96
2021/04/23 03:45:42;;;;;;;11.20;10.10;;;;;;;;;;5042092;28;20535;-96
2021/04/23 03:48:08;;;;;;;10.80;9.23;;;;;;;;;;5042809;28;20455;-96
2021/04/23 03:50:35;;;;;;;13.27;11.13;;;;;;;;;;5042726;28;20453;-96
2021/04/23 03:53:03;;;;;;;12.77;11.43;;;;;;;;;;5042349;28;20456;-96
2021/04/23 03:55:31;;;;;;;14.40;12.63;;;;;;;;;;5034534;28;20464;-96
2021/04/23 03:58:00;;;;;;;14.87;13.00;;;;;;;;;;5044937;28;20449;-96
2021/04/23 04:00:33;;;;;;;17.77;14.10;;;;;;;;;;5052422;28;20454;-96
2021/04/23 04:03:05;;;;;;;22.17;15.30;;;;;;;;;;5038053;28;20528;-96
2021/04/23 04:05:33;;;;;;;23.40;16.50;;;;;;;;;;5025615;28;20484;-96
2021/04/23 04:11:37;;;;;;;13.80;11.70;;;;;;;;;;5059363;28;20458;-93
2021/04/23 04:19:51;;;;;;;15.77;11.40;;;;;;;;;;5164685;23;20468;-93
2021/04/23 04:22:17;;;;;;;11.20;9.83;;;;;;;;;;5042655;28;20437;-94
2021/04/23 04:27:46;;;;;;;14.13;12.10;;;;;;;;;;5123623;22;20495;-96
2021/04/23 04:42:03;;;;;;;14.30;12.40;;;;;;;;;;5371712;23;20489;-96
2021/04/23 04:44:29;;;;;;;16.90;12.30;;;;;;;;;;5056213;28;20424;-96
2021/04/23 04:47:21;;;;;;;20.67;15.73;;;;;;;;;;5078862;28;20441;-96
2021/04/23 04:49:54;;;;;;;17.17;15.20;;;;;;;;;;5133321;22;20475;-96
2021/04/23 05:00:08;;;;;;;21.07;18.10;;;;;;;;;;5335554;22;20485;-96
2021/04/23 05:02:48;;;;;;;20.27;16.63;;;;;;;;;;5058410;28;20463;-94
2021/04/23 05:05:25;;;;;;;18.47;16.60;;;;;;;;;;5111421;23;20493;-96
2021/04/23 05:07:52;;;;;;;19.83;15.83;;;;;;;;;;5056145;28;20457;-96
2021/04/23 05:10:19;;;;;;;16.10;14.50;;;;;;;;;;5057653;28;20431;-96
2021/04/23 05:12:46;;;;;;;17.90;16.10;;;;;;;;;;5056644;28;20464;-96
2021/04/23 05:15:14;;;;;;;19.30;16.97;;;;;;;;;;5057407;28;20426;-96
2021/04/23 05:17:40;;;;;;;17.77;15.97;;;;;;;;;;5044676;28;20437;-94
2021/04/23 05:49:31;;;;;;;17.53;15.07;;;;;;;;;;5330035;22;20494;-96
2021/04/23 05:54:46;;;;;;;16.60;12.07;;;;;;;;;;5573771;22;20497;-96
2021/04/23 05:57:12;;;;;;;13.57;11.27;;;;;;;;;;5094129;28;20440;-93
2021/04/23 05:59:38;;;;;;;13.87;12.37;;;;;;;;;;5101935;28;20397;-92
2021/04/23 06:37:10;;;;;;;9.90;8.90;;;;;;;;;;5228432;22;20593;-96
2021/04/23 06:39:36;;;;;;;9.30;8.40;;;;;;;;;;5100832;28;20457;-94
2021/04/23 07:36:48;;;;;;;5.07;4.67;;;;;;;;;;5297874;22;20477;-96
2021/04/23 07:39:16;;;;;;;5.90;5.00;;;;;;;;;;5068710;28;20446;-96
2021/04/23 07:41:42;;;;;;;5.13;4.63;;;;;;;;;;5067850;28;20454;-96
2021/04/23 07:44:12;;;;;;;5.30;4.90;;;;;;;;;;5070187;28;20437;-96
2021/04/23 07:46:38;;;;;;;6.10;5.50;;;;;;;;;;5074889;28;20489;-96
2021/04/23 07:49:05;;;;;;;5.17;4.67;;;;;;;;;;5060707;28;20435;-96
2021/04/23 08:01:57;;;;;;;5.37;4.87;;;;;;;;;;5066150;26;20485;-96
2021/04/23 08:06:55;;;;;;;5.80;4.73;;;;;;;;;;5095435;28;20516;-96
2021/04/23 08:09:21;;;;;;;4.73;4.23;;;;;;;;;;5098312;28;20437;-96
2021/04/23 08:11:48;;;;;;;4.37;4.00;;;;;;;;;;5099628;28;20452;-96
2021/04/23 08:14:14;;;;;;;5.23;4.83;;;;;;;;;;5094889;28;20444;-96
2021/04/23 08:16:41;;;;;;;6.07;5.53;;;;;;;;;;5109276;28;20513;-96
2021/04/23 08:19:08;;;;;;;6.70;6.10;;;;;;;;;;5097883;28;20482;-96
2021/04/23 08:21:34;;;;;;;6.40;5.80;;;;;;;;;;5100947;28;20531;-96
2021/04/23 08:24:01;;;;;;;6.33;5.73;;;;;;;;;;5116029;28;20426;-96
2021/04/23 08:26:27;;;;;;;6.77;6.00;;;;;;;;;;5080865;28;20496;-96
2021/04/23 08:28:53;;;;;;;6.83;6.23;;;;;;;;;;5097969;28;20448;-96
2021/04/23 08:31:23;;;;;;;4.80;4.40;;;;;;;;;;5098539;28;20451;-96
2021/04/23 08:33:52;;;;;;;6.00;5.50;;;;;;;;;;5095503;28;20449;-96
2021/04/23 08:36:24;;;;;;;5.53;5.03;;;;;;;;;;5105281;28;20416;-96
2021/04/23 08:39:08;;;;;;;4.90;4.50;;;;;;;;;;5148555;22;20502;-96
2021/04/23 08:41:35;;;;;;;5.93;5.43;;;;;;;;;;5058560;22;20487;-96
2021/04/23 08:52:28;;;;;;;7.70;5.83;;;;;;;;;;5170399;22;20469;-96
2021/04/23 08:55:00;;;;;;;7.00;6.37;;;;;;;;;;5073163;28;20434;-96
2021/04/23 09:15:23;;;;;;;6.93;6.30;;;;;;;;;;5311649;22;20505;-96
2021/04/23 09:23:56;;;;;;;7.57;6.87;;;;;;;;;;5386175;22;20561;-96
2021/04/23 09:26:37;;;;;;;7.47;6.77;;;;;;;;;;5053042;28;21250;-96
2021/04/23 09:29:06;;;;;;;7.60;6.90;;;;;;;;;;5044596;28;20984;-96
2021/04/23 09:36:44;;;;;;;5.63;5.13;;;;;;;;;;4853874;26;20535;-96
2021/04/23 09:39:12;;;;;;;5.40;5.00;;;;;;;;;;5088522;23;20470;-97
2021/04/23 09:41:39;;;;;;;4.33;4.00;;;;;;;;;;5061165;28;20478;-96
2021/04/23 09:44:24;;;;;;;5.70;5.20;;;;;;;;;;5052983;28;20508;-96
2021/04/23 09:46:56;;;;;;;7.23;6.63;;;;;;;;;;5051694;28;20483;-96
2021/04/23 09:49:23;;;;;;;5.40;4.87;;;;;;;;;;5056855;28;20447;-96
2021/04/23 09:51:50;;;;;;;5.50;5.10;;;;;;;;;;5053881;28;20449;-96
2021/04/23 09:54:17;;;;;;;5.30;4.50;;;;;;;;;;5062852;28;20474;-96
2021/04/23 09:56:44;;;;;;;6.50;5.07;;;;;;;;;;5053520;28;21149;-96
2021/04/23 09:59:25;;;;;;;6.13;5.63;;;;;;;;;;5066023;28;20450;-96
2021/04/23 10:01:51;;;;;;;6.40;5.90;;;;;;;;;;5038593;28;20457;-96
2021/04/23 10:04:25;;;;;;;5.10;4.70;;;;;;;;;;5062592;28;20458;-96
2021/04/23 10:07:12;;;;;;;5.70;5.20;;;;;;;;;;5052568;28;20489;-96
2021/04/23 10:09:43;;;;;;;5.10;4.70;;;;;;;;;;5048961;28;20426;-96
2021/04/23 10:12:12;;;;;;;5.33;4.80;;;;;;;;;;5063955;28;20454;-96
2021/04/23 10:14:38;;;;;;;6.97;4.90;;;;;;;;;;5054284;28;20451;-96
2021/04/23 10:20:10;;;;;;;6.00;5.40;;;;;;;;;;5053158;28;20415;-96
2021/04/23 10:22:37;;;;;;;8.13;7.10;;;;;;;;;;5060096;28;20454;-96
2021/04/23 10:25:04;;;;;;;6.13;5.63;;;;;;;;;;5061193;28;20481;-96
2021/04/23 10:27:31;;;;;;;7.00;6.40;;;;;;;;;;5064399;28;20451;-96
2021/04/23 10:29:58;;;;;;;6.80;6.20;;;;;;;;;;5071753;28;20446;-96
2021/04/23 10:37:45;;;;;;;10.33;9.33;;;;;;;;;;5053932;28;20482;-93
2021/04/23 10:40:13;;;;;;;11.17;10.07;;;;;;;;;;5066611;23;20482;-96
2021/04/23 10:42:44;;;;;;;11.00;9.57;;;;;;;;;;5056541;28;20497;-96
2021/04/23 10:45:17;;;;;;;9.87;8.83;;;;;;;;;;5033153;23;20468;-96
2021/04/23 10:50:47;;;;;;;8.00;7.27;;;;;;;;;;5039266;28;20440;-96
2021/04/23 10:53:16;;;;;;;6.77;6.17;;;;;;;;;;5024214;28;20440;-96
2021/04/23 10:55:44;;;;;;;5.80;5.30;;;;;;;;;;5047575;28;20455;-96
2021/04/23 10:58:10;;;;;;;8.33;7.50;;;;;;;;;;5056779;28;20461;-96
2021/04/23 11:00:38;;;;;;;8.53;7.73;;;;;;;;;;5058226;28;20447;-96
2021/04/23 11:51:20;;;;;;;6.40;5.53;;;;;;;;;;5459404;22;20464;-93
2021/04/23 11:59:56;;;;;;;4.47;4.13;;;;;;;;;;5155722;22;20512;-96
2021/04/23 12:02:38;;;;;;;5.47;4.97;;;;;;;;;;5078807;28;20429;-96
2021/04/23 12:05:21;;;;;;;4.30;4.00;;;;;;;;;;5113458;22;20456;-96
2021/04/23 12:10:25;;;;;;;5.10;4.60;;;;;;;;;;5277692;23;20471;-96
2021/04/23 12:12:51;;;;;;;5.80;5.30;;;;;;;;;;5047807;28;20432;-96
2021/04/23 12:15:18;;;;;;;5.80;4.30;;;;;;;;;;5048936;28;20427;-95
2021/04/23 12:17:44;;;;;;;4.80;4.40;;;;;;;;;;5058840;28;20447;-95
2021/04/23 12:20:16;;;;;;;5.00;4.60;;;;;;;;;;5157055;23;20502;-96
2021/04/23 12:22:43;;;;;;;5.20;4.80;;;;;;;;;;5040197;28;20436;-95
2021/04/23 12:25:19;;;;;;;4.90;4.47;;;;;;;;;;5039352;28;20444;-96
2021/04/23 12:27:46;;;;;;;5.00;4.50;;;;;;;;;;5029030;28;20518;-96
2021/04/23 12:30:13;;;;;;;5.00;4.60;;;;;;;;;;5031385;28;20479;-96
2021/04/23 12:32:50;;;;;;;4.90;4.30;;;;;;;;;;5030448;28;20447;-95
2021/04/23 12:35:29;;;;;;;5.07;4.60;;;;;;;;;;5040797;28;20462;-96
2021/04/23 12:37:55;;;;;;;5.47;4.97;;;;;;;;;;5037550;28;20444;-96
2021/04/23 12:40:29;;;;;;;4.73;4.33;;;;;;;;;;5035699;28;20446;-96
2021/04/23 12:42:56;;;;;;;3.90;3.60;;;;;;;;;;5035372;28;20443;-96
2021/04/23 12:45:22;;;;;;;5.30;4.50;;;;;;;;;;5038649;28;20475;-96
2021/04/23 12:47:48;;;;;;;5.73;4.70;;;;;;;;;;5041350;28;20443;-96
2021/04/23 12:50:14;;;;;;;4.40;4.10;;;;;;;;;;5016863;28;20456;-96
2021/04/23 12:52:40;;;;;;;4.93;4.53;;;;;;;;;;5024155;28;20444;-95
2021/04/23 12:55:07;;;;;;;3.80;3.60;;;;;;;;;;5022197;28;20447;-95
2021/04/23 12:57:33;;;;;;;3.80;3.50;;;;;;;;;;5024072;28;20852;-95
2021/04/23 13:00:05;;;;;;;5.13;4.27;;;;;;;;;;5028134;28;20445;-95
2021/04/23 13:02:32;;;;;;;4.37;3.97;;;;;;;;;;5027480;28;20448;-95
2021/04/23 13:05:06;;;;;;;4.03;3.63;;;;;;;;;;5024466;28;20514;-95
2021/04/23 13:07:33;;;;;;;3.40;3.10;;;;;;;;;;5016223;28;20462;-96
2021/04/23 13:09:59;;;;;;;3.57;3.37;;;;;;;;;;5027965;28;20904;-96
2021/04/23 13:12:28;;;;;;;4.07;3.77;;;;;;;;;;5025762;28;20459;-94
2021/04/23 13:14:54;;;;;;;4.30;3.83;;;;;;;;;;5025094;28;20576;-96
2021/04/23 13:17:21;;;;;;;4.80;3.43;;;;;;;;;;5024867;28;20445;-96
2021/04/23 13:19:50;;;;;;;3.53;3.27;;;;;;;;;;5027975;28;20475;-92
2021/04/23 13:22:22;;;;;;;3.10;2.90;;;;;;;;;;5032997;28;20447;-94
2021/04/23 13:24:49;;;;;;;2.60;2.50;;;;;;;;;;5035031;28;20465;-96
2021/04/23 13:27:28;;;;;;;3.50;3.30;;;;;;;;;;5035424;28;20502;-96
2021/04/23 13:29:54;;;;;;;5.67;3.47;;;;;;;;;;5035221;28;20456;-94
2021/04/23 13:32:21;;;;;;;3.90;3.60;;;;;;;;;;5017198;28;20468;-96
2021/04/23 13:34:53;;;;;;;3.37;3.07;;;;;;;;;;5040077;28;20448;-96
2021/04/23 13:37:28;;;;;;;3.63;3.33;;;;;;;;;;5052212;28;20460;-96
2021/04/23 13:40:05;;;;;;;3.00;2.80;;;;;;;;;;5036390;28;20458;-96
2021/04/23 13:42:31;;;;;;;3.10;2.80;;;;;;;;;;5038729;28;20444;-96
2021/04/23 13:45:06;;;;;;;3.10;2.80;;;;;;;;;;5033661;28;20447;-96
2021/04/23 13:47:37;;;;;;;2.97;2.73;;;;;;;;;;5034104;28;20451;-96
2021/04/23 13:50:08;;;;;;;2.77;2.57;;;;;;;;;;5073921;22;20498;-95
2021/04/23 13:52:40;;;;;;;2.50;2.30;;;;;;;;;;5071317;28;20442;-96
2021/04/23 13:55:08;;;;;;;2.37;2.17;;;;;;;;;;5070217;28;20469;-96
2021/04/23 13:57:34;;;;;;;2.70;2.20;;;;;;;;;;5073470;28;20428;-96
2021/04/23 14:00:00;;;;;;;2.57;2.37;;;;;;;;;;5068853;28;20992;-96
2021/04/23 14:02:26;;;;;;;3.10;2.80;;;;;;;;;;5060965;28;20514;-96
2021/04/23 14:04:53;;;;;;;2.90;2.70;;;;;;;;;;5069523;28;20462;-96
2021/04/23 14:07:20;;;;;;;3.23;3.03;;;;;;;;;;5070853;28;20509;-96
2021/04/23 14:10:01;;;;;;;3.60;3.20;;;;;;;;;;5076596;28;20432;-96
2021/04/23 14:21:21;;;;;;;4.57;4.17;;;;;;;;;;5103963;22;20488;-96
2021/04/23 14:23:47;;;;;;;5.40;3.90;;;;;;;;;;5079479;28;20457;-96
2021/04/23 14:26:13;;;;;;;4.30;4.00;;;;;;;;;;5077664;28;20495;-96
2021/04/23 14:28:39;;;;;;;4.23;3.83;;;;;;;;;;5081795;28;20454;-96
2021/04/23 14:31:12;;;;;;;3.97;3.67;;;;;;;;;;5087125;28;20421;-95
2021/04/23 14:33:38;;;;;;;3.53;3.27;;;;;;;;;;5084245;28;20979;-96
2021/04/23 14:36:04;;;;;;;4.10;3.80;;;;;;;;;;5084933;28;20449;-96
2021/04/23 14:38:31;;;;;;;5.60;4.33;;;;;;;;;;5085530;28;20494;-95
2021/04/23 14:40:57;;;;;;;3.80;3.50;;;;;;;;;;5087217;28;20448;-95
2021/04/23 14:43:24;;;;;;;5.90;3.70;;;;;;;;;;5087205;28;20454;-96
2021/04/23 14:45:50;;;;;;;4.00;3.30;;;;;;;;;;5085941;28;20460;-96
2021/04/23 14:48:16;;;;;;;5.30;2.50;;;;;;;;;;5083927;28;20445;-96
2021/04/23 14:50:42;;;;;;;6.43;3.40;;;;;;;;;;5083603;28;20449;-96
2021/04/23 14:53:08;;;;;;;3.73;3.03;;;;;;;;;;5085293;28;20441;-96
2021/04/23 14:55:35;;;;;;;7.53;3.20;;;;;;;;;;5084627;28;20449;-95
2021/04/23 14:58:01;;;;;;;3.57;3.27;;;;;;;;;;5086480;28;20502;-94
2021/04/23 15:00:29;;;;;;;3.10;2.80;;;;;;;;;;5084232;28;20445;-96
2021/04/23 15:02:55;;;;;;;7.33;3.33;;;;;;;;;;5088241;28;20418;-96
2021/04/23 15:05:22;;;;;;;5.70;4.73;;;;;;;;;;5083353;28;20432;-94
2021/04/23 15:07:48;;;;;;;4.90;3.97;;;;;;;;;;5089483;28;20429;-95
2021/04/23 15:10:15;;;;;;;3.37;3.07;;;;;;;;;;5122353;22;20488;-95
2021/04/23 15:12:43;;;;;;;4.60;3.23;;;;;;;;;;5042194;28;20426;-96
2021/04/23 15:15:10;;;;;;;4.00;3.57;;;;;;;;;;5087733;28;20437;-96
2021/04/23 15:17:37;;;;;;;4.80;4.30;;;;;;;;;;5093859;22;20491;-96
2021/04/23 15:20:04;;;;;;;6.23;5.63;;;;;;;;;;5110687;28;20506;-95
2021/04/23 15:22:30;;;;;;;5.27;4.77;;;;;;;;;;5114242;28;20482;-96
2021/04/23 15:24:56;;;;;;;5.17;4.67;;;;;;;;;;5108546;28;20449;-95
2021/04/23 15:27:22;;;;;;;7.27;5.53;;;;;;;;;;5112581;28;20511;-96
2021/04/23 15:29:49;;;;;;;8.20;6.47;;;;;;;;;;5111207;28;20497;-96
2021/04/23 15:32:16;;;;;;;5.57;4.67;;;;;;;;;;5107615;23;20538;-96
2021/04/23 15:34:42;;;;;;;6.40;4.87;;;;;;;;;;5092357;28;20453;-96
2021/04/23 15:37:09;;;;;;;6.13;4.73;;;;;;;;;;5094315;28;20453;-96
2021/04/23 15:39:35;;;;;;;3.83;3.53;;;;;;;;;;5092247;28;20910;-96
2021/04/23 15:42:01;;;;;;;8.00;5.60;;;;;;;;;;5089246;22;20943;-96
2021/04/23 15:44:28;;;;;;;5.37;4.47;;;;;;;;;;5071820;28;20545;-96
2021/04/23 15:46:55;;;;;;;5.20;4.50;;;;;;;;;;5071119;28;20466;-96
2021/04/23 15:49:26;;;;;;;9.00;4.73;;;;;;;;;;5085605;23;20521;-96
2021/04/23 15:51:53;;;;;;;5.17;3.77;;;;;;;;;;5037715;28;20444;-95
2021/04/23 15:54:19;;;;;;;5.83;4.70;;;;;;;;;;5065652;23;20505;-95
2021/04/23 15:56:45;;;;;;;4.40;3.60;;;;;;;;;;5070823;28;20430;-96
2021/04/23 15:59:11;;;;;;;3.70;3.27;;;;;;;;;;5072743;28;20462;-96
2021/04/23 16:01:37;;;;;;;3.43;3.13;;;;;;;;;;5071222;28;21000;-96
2021/04/23 16:04:04;;;;;;;3.83;3.53;;;;;;;;;;5076020;28;20452;-96
2021/04/23 16:06:30;;;;;;;4.13;3.73;;;;;;;;;;5074983;28;20497;-96
2021/04/23 16:08:57;;;;;;;3.43;3.13;;;;;;;;;;5077872;28;20429;-96
2021/04/23 16:11:23;;;;;;;4.60;4.20;;;;;;;;;;5117270;22;20473;-94
2021/04/23 16:13:49;;;;;;;9.43;4.30;;;;;;;;;;5039243;28;20658;-96
2021/04/23 16:16:15;;;;;;;4.73;3.20;;;;;;;;;;5036848;28;20443;-96
2021/04/23 16:21:25;;;;;;;3.50;3.20;;;;;;;;;;5181534;23;20481;-96
2021/04/23 16:24:13;;;;;;;4.03;3.20;;;;;;;;;;5077110;28;20469;-96
2021/04/23 16:35:21;;;;;;;6.90;5.93;;;;;;;;;;5279364;22;20547;-96
2021/04/23 16:37:49;;;;;;;8.13;5.20;;;;;;;;;;5115326;28;20454;-96
2021/04/23 16:40:16;;;;;;;4.77;4.37;;;;;;;;;;5143655;23;20516;-96
2021/04/23 16:42:43;;;;;;;4.70;3.67;;;;;;;;;;5135205;27;20443;-96
2021/04/23 16:45:10;;;;;;;6.17;4.63;;;;;;;;;;5106659;28;20490;-96
2021/04/23 16:47:37;;;;;;;8.27;6.23;;;;;;;;;;5119443;28;20491;-96
2021/04/23 16:53:15;;;;;;;8.60;7.27;;;;;;;;;;5113767;28;20423;-96
2021/04/23 16:55:47;;;;;;;9.53;8.00;;;;;;;;;;5130460;27;20470;-96
2021/04/23 17:04:10;;;;;;;8.03;7.23;;;;;;;;;;5125978;28;20427;-96
2021/04/23 17:06:42;;;;;;;10.10;7.20;;;;;;;;;;5135642;28;20546;-96
2021/04/23 17:09:09;;;;;;;12.33;7.53;;;;;;;;;;5122717;28;20431;-96
2021/04/23 17:11:36;;;;;;;7.90;6.90;;;;;;;;;;5172219;22;20427;-96
2021/04/23 17:14:02;;;;;;;10.40;9.33;;;;;;;;;;5099148;28;20430;-96
2021/04/23 17:16:29;;;;;;;10.20;9.07;;;;;;;;;;5082895;28;20433;-96
2021/04/23 17:18:55;;;;;;;11.00;9.30;;;;;;;;;;5083298;28;20539;-96
2021/04/23 17:26:51;;;;;;;10.23;8.93;;;;;;;;;;5267500;23;20533;-96
2021/04/23 17:29:17;;;;;;;13.27;9.10;;;;;;;;;;5120651;28;20510;-96
2021/04/23 17:31:43;;;;;;;10.13;9.20;;;;;;;;;;5088600;22;20516;-96
2021/04/23 17:34:10;;;;;;;11.50;9.50;;;;;;;;;;5044640;28;20447;-96
2021/04/23 17:36:36;;;;;;;10.93;9.93;;;;;;;;;;5030763;28;20464;-96
2021/04/23 17:39:02;;;;;;;11.80;8.70;;;;;;;;;;5035565;28;20490;-96
2021/04/23 17:41:28;;;;;;;12.63;10.77;;;;;;;;;;5037467;28;20455;-96
2021/04/23 17:43:56;;;;;;;13.53;10.57;;;;;;;;;;5047926;28;20447;-96
2021/04/23 17:46:22;;;;;;;12.20;10.90;;;;;;;;;;5039921;28;21049;-96
2021/04/23 17:48:50;;;;;;;11.73;10.63;;;;;;;;;;5014530;28;21077;-96
2021/04/23 17:54:11;;;;;;;14.00;10.30;;;;;;;;;;5053698;28;20442;-96
2021/04/23 17:56:39;;;;;;;12.83;9.73;;;;;;;;;;5039813;28;20868;-96
2021/04/23 17:59:08;;;;;;;10.67;9.57;;;;;;;;;;5039975;28;20486;-96
2021/04/23 18:01:41;;;;;;;11.53;10.43;;;;;;;;;;5043976;28;20489;-96
2021/04/23 18:04:09;;;;;;;10.90;9.90;;;;;;;;;;5031778;28;20440;-96
2021/04/23 18:06:35;;;;;;;11.00;9.47;;;;;;;;;;5026074;28;20495;-96
2021/04/23 18:09:07;;;;;;;11.80;10.23;;;;;;;;;;5036181;28;20450;-96
2021/04/23 18:11:36;;;;;;;13.27;10.00;;;;;;;;;;5033055;28;20461;-96
2021/04/23 18:14:13;;;;;;;11.77;10.23;;;;;;;;;;5041599;28;20444;-96
2021/04/23 18:16:42;;;;;;;12.20;10.90;;;;;;;;;;5035230;28;20517;-96
2021/04/23 18:19:08;;;;;;;12.93;11.33;;;;;;;;;;5005469;28;20797;-96
2021/04/23 18:21:34;;;;;;;14.30;11.37;;;;;;;;;;5036842;28;20510;-95
2021/04/23 18:24:00;;;;;;;13.20;11.30;;;;;;;;;;5027989;28;20497;-96
2021/04/23 18:26:26;;;;;;;13.47;12.10;;;;;;;;;;5029538;28;20485;-96
2021/04/23 18:28:52;;;;;;;12.60;10.87;;;;;;;;;;5018257;28;20452;-96
2021/04/23 18:31:19;;;;;;;11.83;10.63;;;;;;;;;;5021639;28;20483;-95
2021/04/23 18:33:45;;;;;;;13.13;11.70;;;;;;;;;;5023829;28;20467;-96
2021/04/23 18:36:12;;;;;;;12.40;11.10;;;;;;;;;;5031852;28;20455;-96
2021/04/23 18:38:40;;;;;;;15.87;13.00;;;;;;;;;;5028627;28;20487;-96
2021/04/23 18:41:07;;;;;;;14.97;13.43;;;;;;;;;;5035474;28;20447;-94
2021/04/23 18:43:33;;;;;;;17.00;14.43;;;;;;;;;;5030471;28;20451;-95
2021/04/23 18:45:59;;;;;;;14.03;12.33;;;;;;;;;;5034046;28;20486;-96
2021/04/23 18:48:26;;;;;;;12.90;11.27;;;;;;;;;;5035312;28;20469;-96
2021/04/23 18:50:53;;;;;;;13.37;11.60;;;;;;;;;;5033810;28;20443;-95
2021/04/23 18:53:19;;;;;;;11.27;10.07;;;;;;;;;;5033167;28;20447;-96
2021/04/23 18:55:45;;;;;;;10.80;9.70;;;;;;;;;;5026682;28;20441;-96
2021/04/23 18:58:11;;;;;;;11.40;10.20;;;;;;;;;;5037737;28;20439;-96
2021/04/23 19:00:38;;;;;;;9.83;8.73;;;;;;;;;;5038919;28;20451;-95
2021/04/23 19:03:04;;;;;;;10.40;9.40;;;;;;;;;;5043230;28;20447;-95
2021/04/23 19:05:31;;;;;;;10.70;9.17;;;;;;;;;;5017320;28;20476;-96
2021/04/23 19:07:57;;;;;;;10.37;9.23;;;;;;;;;;5031675;28;20451;-96
2021/04/23 19:10:24;;;;;;;11.20;10.03;;;;;;;;;;5024247;28;20542;-95
2021/04/23 19:12:50;;;;;;;11.83;10.67;;;;;;;;;;5031274;28;20489;-95
2021/04/23 19:15:17;;;;;;;11.77;9.90;;;;;;;;;;5026249;28;20493;-94
2021/04/23 19:17:44;;;;;;;11.70;9.80;;;;;;;;;;5023836;28;20451;-95
2021/04/23 19:20:12;;;;;;;12.40;10.20;;;;;;;;;;5036181;28;20966;-96
2021/04/23 19:22:39;;;;;;;11.87;10.70;;;;;;;;;;5025300;28;20462;-95
2021/04/23 19:25:05;;;;;;;11.27;10.27;;;;;;;;;;5021209;28;20467;-94
2021/04/23 19:27:32;;;;;;;12.00;10.30;;;;;;;;;;5027029;28;20497;-94
2021/04/23 19:29:58;;;;;;;11.20;10.00;;;;;;;;;;5028894;28;20471;-94
2021/04/23 19:32:24;;;;;;;11.23;10.10;;;;;;;;;;5041329;28;20474;-95
2021/04/23 19:34:50;;;;;;;11.83;10.67;;;;;;;;;;5028966;28;20463;-95
2021/04/23 19:37:16;;;;;;;12.97;11.40;;;;;;;;;;5031775;28;20459;-95
2021/04/23 19:39:43;;;;;;;13.10;11.70;;;;;;;;;;5031631;28;20470;-95
2021/04/23 19:42:09;;;;;;;14.83;11.50;;;;;;;;;;5028865;28;20466;-96
2021/04/23 19:44:35;;;;;;;11.97;10.87;;;;;;;;;;5030007;28;20454;-95
2021/04/23 19:47:01;;;;;;;16.13;10.07;;;;;;;;;;5012749;28;20525;-95
2021/04/23 19:49:27;;;;;;;12.40;8.90;;;;;;;;;;5031323;28;20452;-95
2021/04/23 19:51:54;;;;;;;9.40;8.50;;;;;;;;;;5028902;28;20466;-93
2021/04/23 19:54:20;;;;;;;9.23;8.33;;;;;;;;;;5014710;28;20805;-93
2021/04/23 19:56:47;;;;;;;9.10;8.20;;;;;;;;;;5025688;28;20494;-94
2021/04/23 19:59:13;;;;;;;8.70;7.80;;;;;;;;;;5031321;28;20446;-95
2021/04/23 20:01:39;;;;;;;10.70;9.60;;;;;;;;;;5026590;28;20506;-93
2021/04/23 20:04:08;;;;;;;14.20;11.93;;;;;;;;;;5032575;28;20447;-96
2021/04/23 20:06:34;;;;;;;17.57;12.80;;;;;;;;;;5025365;28;20505;-93
2021/04/23 20:09:00;;;;;;;16.90;10.47;;;;;;;;;;5020605;28;20484;-95
2021/04/23 20:11:29;;;;;;;14.90;11.30;;;;;;;;;;5023045;28;20467;-96
2021/04/23 20:13:55;;;;;;;17.93;12.90;;;;;;;;;;5021424;28;20465;-96
2021/04/23 20:16:21;;;;;;;16.20;13.80;;;;;;;;;;5026303;28;20447;-96
2021/04/23 20:18:47;;;;;;;15.57;12.87;;;;;;;;;;5027618;28;20789;-95